sensor_id;sensor_type;location;lat;lon;timestamp;P1;durP1;ratioP1;P2;durP2;ratioP2
5391;SDS011;2719;53.624;9.786;2023-02-01T00:00:25;27.30;;;2.97;;
5391;SDS011;2719;53.624;9.786;2023-02-01T00:02:51;18.53;;;2.30;;
5391;SDS011;2719;53.624;9.786;2023-02-01T00:05:18;22.13;;;2.67;;
5391;SDS011;2719;53.624;9.786;2023-02-01T00:07:46;19.83;;;2.50;;
5391;SDS011;2719;53.624;9.786;2023-02-01T00:10:13;27.60;;;2.60;;
5391;SDS011;2719;53.624;9.786;2023-02-01T00:12:41;14.30;;;3.20;;
5391;SDS011;2719;53.624;9.786;2023-02-01T00:15:08;30.70;;;3.00;;
5391;SDS011;2719;53.624;9.786;2023-02-01T00:17:35;20.20;;;2.70;;
5391;SDS011;2719;53.624;9.786;2023-02-01T00:20:03;19.53;;;2.30;;
5391;SDS011;2719;53.624;9.786;2023-02-01T00:22:30;29.10;;;3.80;;
5391;SDS011;2719;53.624;9.786;2023-02-01T00:24:57;24.30;;;2.53;;
5391;SDS011;2719;53.624;9.786;2023-02-01T00:27:23;21.23;;;2.77;;
5391;SDS011;2719;53.624;9.786;2023-02-01T00:29:53;14.33;;;2.40;;
5391;SDS011;2719;53.624;9.786;2023-02-01T00:32:20;27.60;;;3.53;;
5391;SDS011;2719;53.624;9.786;2023-02-01T00:34:47;17.93;;;2.37;;
5391;SDS011;2719;53.624;9.786;2023-02-01T00:37:13;14.87;;;2.93;;
5391;SDS011;2719;53.624;9.786;2023-02-01T00:39:40;12.40;;;1.60;;
5391;SDS011;2719;53.624;9.786;2023-02-01T00:42:07;50.20;;;3.70;;
5391;SDS011;2719;53.624;9.786;2023-02-01T00:44:33;23.77;;;2.53;;
5391;SDS011;2719;53.624;9.786;2023-02-01T00:47:02;25.97;;;3.40;;
5391;SDS011;2719;53.624;9.786;2023-02-01T00:49:28;31.43;;;4.37;;
5391;SDS011;2719;53.624;9.786;2023-02-01T00:51:55;20.47;;;2.00;;
5391;SDS011;2719;53.624;9.786;2023-02-01T00:54:22;31.17;;;3.20;;
5391;SDS011;2719;53.624;9.786;2023-02-01T00:56:48;31.00;;;4.23;;
5391;SDS011;2719;53.624;9.786;2023-02-01T00:59:15;24.93;;;3.27;;
5391;SDS011;2719;53.624;9.786;2023-02-01T01:01:42;19.83;;;2.83;;
5391;SDS011;2719;53.624;9.786;2023-02-01T01:04:10;35.60;;;3.93;;
5391;SDS011;2719;53.624;9.786;2023-02-01T01:06:36;24.80;;;4.13;;
5391;SDS011;2719;53.624;9.786;2023-02-01T01:09:04;32.37;;;2.60;;
5391;SDS011;2719;53.624;9.786;2023-02-01T01:11:34;32.70;;;3.43;;
5391;SDS011;2719;53.624;9.786;2023-02-01T01:14:02;12.97;;;3.60;;
5391;SDS011;2719;53.624;9.786;2023-02-01T01:16:31;15.57;;;2.97;;
5391;SDS011;2719;53.624;9.786;2023-02-01T01:18:58;45.97;;;4.60;;
5391;SDS011;2719;53.624;9.786;2023-02-01T01:21:27;30.60;;;3.30;;
5391;SDS011;2719;53.624;9.786;2023-02-01T01:23:54;40.27;;;3.63;;
5391;SDS011;2719;53.624;9.786;2023-02-01T01:26:22;25.77;;;3.67;;
5391;SDS011;2719;53.624;9.786;2023-02-01T01:28:50;29.97;;;4.03;;
5391;SDS011;2719;53.624;9.786;2023-02-01T01:31:17;22.30;;;4.33;;
5391;SDS011;2719;53.624;9.786;2023-02-01T01:33:47;35.47;;;3.30;;
5391;SDS011;2719;53.624;9.786;2023-02-01T01:36:14;40.30;;;4.10;;
5391;SDS011;2719;53.624;9.786;2023-02-01T01:38:42;27.53;;;3.27;;
5391;SDS011;2719;53.624;9.786;2023-02-01T01:41:11;46.00;;;3.40;;
5391;SDS011;2719;53.624;9.786;2023-02-01T01:46:29;18.33;;;3.40;;
5391;SDS011;2719;53.624;9.786;2023-02-01T01:49:00;18.13;;;3.60;;
5391;SDS011;2719;53.624;9.786;2023-02-01T01:51:31;43.40;;;5.70;;
5391;SDS011;2719;53.624;9.786;2023-02-01T01:54:05;20.67;;;4.27;;
5391;SDS011;2719;53.624;9.786;2023-02-01T01:56:36;47.10;;;5.17;;
5391;SDS011;2719;53.624;9.786;2023-02-01T01:59:03;26.47;;;3.13;;
5391;SDS011;2719;53.624;9.786;2023-02-01T02:01:31;29.30;;;3.53;;
5391;SDS011;2719;53.624;9.786;2023-02-01T02:03:58;31.40;;;3.97;;
5391;SDS011;2719;53.624;9.786;2023-02-01T02:06:27;25.93;;;3.43;;
5391;SDS011;2719;53.624;9.786;2023-02-01T02:09:01;37.33;;;3.10;;
5391;SDS011;2719;53.624;9.786;2023-02-01T02:11:30;16.03;;;2.80;;
5391;SDS011;2719;53.624;9.786;2023-02-01T02:13:56;21.27;;;3.20;;
5391;SDS011;2719;53.624;9.786;2023-02-01T02:16:34;21.77;;;2.67;;
5391;SDS011;2719;53.624;9.786;2023-02-01T02:22:48;21.97;;;2.73;;
5391;SDS011;2719;53.624;9.786;2023-02-01T02:25:40;39.83;;;4.57;;
5391;SDS011;2719;53.624;9.786;2023-02-01T02:28:45;18.20;;;2.80;;
5391;SDS011;2719;53.624;9.786;2023-02-01T02:31:38;29.70;;;3.70;;
5391;SDS011;2719;53.624;9.786;2023-02-01T02:34:23;30.97;;;4.17;;
5391;SDS011;2719;53.624;9.786;2023-02-01T02:36:55;36.83;;;6.43;;
5391;SDS011;2719;53.624;9.786;2023-02-01T02:39:32;34.40;;;2.93;;
5391;SDS011;2719;53.624;9.786;2023-02-01T02:42:08;36.23;;;3.30;;
5391;SDS011;2719;53.624;9.786;2023-02-01T02:44:59;37.47;;;3.13;;
5391;SDS011;2719;53.624;9.786;2023-02-01T02:47:54;27.83;;;3.17;;
5391;SDS011;2719;53.624;9.786;2023-02-01T02:50:26;15.77;;;3.23;;
5391;SDS011;2719;53.624;9.786;2023-02-01T02:53:16;30.67;;;3.50;;
5391;SDS011;2719;53.624;9.786;2023-02-01T02:56:13;23.43;;;2.83;;
5391;SDS011;2719;53.624;9.786;2023-02-01T02:59:00;23.33;;;2.37;;
5391;SDS011;2719;53.624;9.786;2023-02-01T03:01:46;30.27;;;3.47;;
5391;SDS011;2719;53.624;9.786;2023-02-01T03:04:32;29.87;;;3.17;;
5391;SDS011;2719;53.624;9.786;2023-02-01T03:07:10;31.13;;;3.63;;
5391;SDS011;2719;53.624;9.786;2023-02-01T03:09:39;26.93;;;3.90;;
5391;SDS011;2719;53.624;9.786;2023-02-01T03:12:11;41.37;;;3.80;;
5391;SDS011;2719;53.624;9.786;2023-02-01T03:15:00;21.57;;;2.43;;
5391;SDS011;2719;53.624;9.786;2023-02-01T03:17:33;21.07;;;2.80;;
5391;SDS011;2719;53.624;9.786;2023-02-01T03:20:05;18.77;;;2.77;;
5391;SDS011;2719;53.624;9.786;2023-02-01T03:22:37;19.33;;;1.97;;
5391;SDS011;2719;53.624;9.786;2023-02-01T03:25:07;15.63;;;2.10;;
5391;SDS011;2719;53.624;9.786;2023-02-01T03:27:40;18.37;;;1.40;;
5391;SDS011;2719;53.624;9.786;2023-02-01T03:30:15;9.97;;;1.57;;
5391;SDS011;2719;53.624;9.786;2023-02-01T03:32:45;13.40;;;1.97;;
5391;SDS011;2719;53.624;9.786;2023-02-01T03:35:26;10.53;;;1.20;;
5391;SDS011;2719;53.624;9.786;2023-02-01T03:37:59;19.97;;;1.93;;
5391;SDS011;2719;53.624;9.786;2023-02-01T03:40:29;16.30;;;1.57;;
5391;SDS011;2719;53.624;9.786;2023-02-01T03:43:00;22.90;;;2.43;;
5391;SDS011;2719;53.624;9.786;2023-02-01T03:45:31;21.80;;;3.70;;
5391;SDS011;2719;53.624;9.786;2023-02-01T03:48:04;16.17;;;1.90;;
5391;SDS011;2719;53.624;9.786;2023-02-01T03:50:31;26.13;;;3.37;;
5391;SDS011;2719;53.624;9.786;2023-02-01T03:53:03;10.70;;;1.87;;
5391;SDS011;2719;53.624;9.786;2023-02-01T03:55:33;15.57;;;1.90;;
5391;SDS011;2719;53.624;9.786;2023-02-01T03:58:04;24.00;;;2.33;;
5391;SDS011;2719;53.624;9.786;2023-02-01T04:00:35;19.70;;;1.73;;
5391;SDS011;2719;53.624;9.786;2023-02-01T04:03:01;22.10;;;2.50;;
5391;SDS011;2719;53.624;9.786;2023-02-01T04:05:30;10.30;;;1.33;;
5391;SDS011;2719;53.624;9.786;2023-02-01T04:07:56;15.90;;;1.80;;
5391;SDS011;2719;53.624;9.786;2023-02-01T04:10:25;19.73;;;2.63;;
5391;SDS011;2719;53.624;9.786;2023-02-01T04:12:52;32.17;;;2.30;;
5391;SDS011;2719;53.624;9.786;2023-02-01T04:15:19;19.30;;;1.70;;
5391;SDS011;2719;53.624;9.786;2023-02-01T04:17:45;25.83;;;1.83;;
5391;SDS011;2719;53.624;9.786;2023-02-01T04:20:12;26.97;;;1.90;;
5391;SDS011;2719;53.624;9.786;2023-02-01T04:22:39;23.13;;;2.17;;
5391;SDS011;2719;53.624;9.786;2023-02-01T04:25:06;15.10;;;1.73;;
5391;SDS011;2719;53.624;9.786;2023-02-01T04:27:35;26.50;;;2.07;;
5391;SDS011;2719;53.624;9.786;2023-02-01T04:30:02;14.63;;;1.80;;
5391;SDS011;2719;53.624;9.786;2023-02-01T04:32:29;19.20;;;2.10;;
5391;SDS011;2719;53.624;9.786;2023-02-01T04:34:55;13.80;;;1.90;;
5391;SDS011;2719;53.624;9.786;2023-02-01T04:37:22;10.20;;;1.73;;
5391;SDS011;2719;53.624;9.786;2023-02-01T04:39:48;19.47;;;1.13;;
5391;SDS011;2719;53.624;9.786;2023-02-01T04:42:16;5.67;;;0.73;;
5391;SDS011;2719;53.624;9.786;2023-02-01T04:44:44;9.80;;;0.90;;
5391;SDS011;2719;53.624;9.786;2023-02-01T04:47:11;12.13;;;1.40;;
5391;SDS011;2719;53.624;9.786;2023-02-01T04:49:37;11.90;;;1.60;;
5391;SDS011;2719;53.624;9.786;2023-02-01T04:52:04;5.53;;;0.97;;
5391;SDS011;2719;53.624;9.786;2023-02-01T04:54:31;4.43;;;0.60;;
5391;SDS011;2719;53.624;9.786;2023-02-01T04:56:57;6.67;;;1.27;;
5391;SDS011;2719;53.624;9.786;2023-02-01T04:59:24;10.23;;;1.10;;
5391;SDS011;2719;53.624;9.786;2023-02-01T05:01:52;7.83;;;1.33;;
5391;SDS011;2719;53.624;9.786;2023-02-01T05:04:19;11.97;;;0.50;;
5391;SDS011;2719;53.624;9.786;2023-02-01T05:06:45;5.70;;;0.90;;
5391;SDS011;2719;53.624;9.786;2023-02-01T05:09:12;5.80;;;0.50;;
5391;SDS011;2719;53.624;9.786;2023-02-01T05:11:39;4.87;;;0.47;;
5391;SDS011;2719;53.624;9.786;2023-02-01T05:14:23;4.47;;;0.60;;
5391;SDS011;2719;53.624;9.786;2023-02-01T05:16:50;1.83;;;0.40;;
5391;SDS011;2719;53.624;9.786;2023-02-01T05:19:18;3.50;;;0.50;;
5391;SDS011;2719;53.624;9.786;2023-02-01T05:21:45;4.73;;;0.40;;
5391;SDS011;2719;53.624;9.786;2023-02-01T05:24:11;1.70;;;0.37;;
5391;SDS011;2719;53.624;9.786;2023-02-01T05:26:42;0.97;;;0.30;;
5391;SDS011;2719;53.624;9.786;2023-02-01T05:29:09;2.73;;;0.40;;
5391;SDS011;2719;53.624;9.786;2023-02-01T05:31:36;0.80;;;0.30;;
5391;SDS011;2719;53.624;9.786;2023-02-01T05:34:03;3.53;;;0.50;;
5391;SDS011;2719;53.624;9.786;2023-02-01T05:36:32;5.03;;;0.40;;
5391;SDS011;2719;53.624;9.786;2023-02-01T05:38:59;4.67;;;0.50;;
5391;SDS011;2719;53.624;9.786;2023-02-01T05:41:25;1.47;;;0.50;;
5391;SDS011;2719;53.624;9.786;2023-02-01T05:43:52;1.10;;;0.40;;
5391;SDS011;2719;53.624;9.786;2023-02-01T05:46:19;3.43;;;0.47;;
5391;SDS011;2719;53.624;9.786;2023-02-01T05:48:45;3.30;;;0.30;;
5391;SDS011;2719;53.624;9.786;2023-02-01T05:51:12;5.60;;;0.50;;
5391;SDS011;2719;53.624;9.786;2023-02-01T05:53:40;3.63;;;0.33;;
5391;SDS011;2719;53.624;9.786;2023-02-01T05:56:07;0.80;;;0.37;;
5391;SDS011;2719;53.624;9.786;2023-02-01T05:58:34;2.40;;;0.40;;
5391;SDS011;2719;53.624;9.786;2023-02-01T06:01:01;2.20;;;0.40;;
5391;SDS011;2719;53.624;9.786;2023-02-01T06:03:28;2.20;;;0.40;;
5391;SDS011;2719;53.624;9.786;2023-02-01T06:05:55;3.07;;;0.43;;
5391;SDS011;2719;53.624;9.786;2023-02-01T06:08:21;2.70;;;0.60;;
5391;SDS011;2719;53.624;9.786;2023-02-01T06:10:51;3.03;;;0.40;;
5391;SDS011;2719;53.624;9.786;2023-02-01T06:13:23;2.80;;;0.80;;
5391;SDS011;2719;53.624;9.786;2023-02-01T06:15:49;4.30;;;0.40;;
5391;SDS011;2719;53.624;9.786;2023-02-01T06:18:16;4.40;;;1.07;;
5391;SDS011;2719;53.624;9.786;2023-02-01T06:20:43;4.03;;;0.50;;
5391;SDS011;2719;53.624;9.786;2023-02-01T06:23:09;6.20;;;0.50;;
5391;SDS011;2719;53.624;9.786;2023-02-01T06:25:36;3.87;;;0.70;;
5391;SDS011;2719;53.624;9.786;2023-02-01T06:28:04;17.20;;;0.80;;
5391;SDS011;2719;53.624;9.786;2023-02-01T06:30:31;4.70;;;0.50;;
5391;SDS011;2719;53.624;9.786;2023-02-01T06:32:58;6.90;;;0.60;;
5391;SDS011;2719;53.624;9.786;2023-02-01T06:35:24;8.97;;;1.43;;
5391;SDS011;2719;53.624;9.786;2023-02-01T06:37:51;14.97;;;2.17;;
5391;SDS011;2719;53.624;9.786;2023-02-01T06:40:18;6.87;;;0.83;;
5391;SDS011;2719;53.624;9.786;2023-02-01T06:42:45;22.43;;;1.03;;
5391;SDS011;2719;53.624;9.786;2023-02-01T06:45:13;4.70;;;0.60;;
5391;SDS011;2719;53.624;9.786;2023-02-01T06:47:39;9.83;;;1.53;;
5391;SDS011;2719;53.624;9.786;2023-02-01T06:50:07;10.57;;;1.10;;
5391;SDS011;2719;53.624;9.786;2023-02-01T06:52:35;21.87;;;1.37;;
5391;SDS011;2719;53.624;9.786;2023-02-01T06:55:01;13.97;;;1.23;;
5391;SDS011;2719;53.624;9.786;2023-02-01T06:57:28;17.17;;;3.43;;
5391;SDS011;2719;53.624;9.786;2023-02-01T06:59:55;15.53;;;1.87;;
5391;SDS011;2719;53.624;9.786;2023-02-01T07:02:25;14.30;;;1.90;;
5391;SDS011;2719;53.624;9.786;2023-02-01T07:04:51;14.00;;;1.30;;
5391;SDS011;2719;53.624;9.786;2023-02-01T07:07:18;7.90;;;1.27;;
5391;SDS011;2719;53.624;9.786;2023-02-01T07:09:47;10.67;;;1.20;;
5391;SDS011;2719;53.624;9.786;2023-02-01T07:12:14;25.40;;;1.50;;
5391;SDS011;2719;53.624;9.786;2023-02-01T07:14:40;17.73;;;1.37;;
5391;SDS011;2719;53.624;9.786;2023-02-01T07:17:07;24.60;;;2.40;;
5391;SDS011;2719;53.624;9.786;2023-02-01T07:19:35;24.63;;;3.70;;
5391;SDS011;2719;53.624;9.786;2023-02-01T07:22:02;27.40;;;2.33;;
5391;SDS011;2719;53.624;9.786;2023-02-01T07:24:29;17.50;;;1.73;;
5391;SDS011;2719;53.624;9.786;2023-02-01T07:26:56;20.83;;;3.13;;
5391;SDS011;2719;53.624;9.786;2023-02-01T07:29:22;12.63;;;2.33;;
5391;SDS011;2719;53.624;9.786;2023-02-01T07:31:49;21.20;;;3.23;;
5391;SDS011;2719;53.624;9.786;2023-02-01T07:34:16;38.67;;;3.63;;
5391;SDS011;2719;53.624;9.786;2023-02-01T07:36:44;24.50;;;2.10;;
5391;SDS011;2719;53.624;9.786;2023-02-01T07:39:10;24.07;;;3.57;;
5391;SDS011;2719;53.624;9.786;2023-02-01T07:41:37;20.07;;;2.27;;
5391;SDS011;2719;53.624;9.786;2023-02-01T07:44:04;17.97;;;3.87;;
5391;SDS011;2719;53.624;9.786;2023-02-01T07:46:31;41.00;;;4.03;;
5391;SDS011;2719;53.624;9.786;2023-02-01T07:48:57;26.90;;;2.60;;
5391;SDS011;2719;53.624;9.786;2023-02-01T07:51:24;35.60;;;2.90;;
5391;SDS011;2719;53.624;9.786;2023-02-01T07:53:52;19.43;;;3.33;;
5391;SDS011;2719;53.624;9.786;2023-02-01T07:56:19;37.97;;;3.37;;
5391;SDS011;2719;53.624;9.786;2023-02-01T07:58:48;23.13;;;2.20;;
5391;SDS011;2719;53.624;9.786;2023-02-01T08:01:15;17.90;;;2.53;;
5391;SDS011;2719;53.624;9.786;2023-02-01T08:03:50;30.60;;;2.37;;
5391;SDS011;2719;53.624;9.786;2023-02-01T08:06:17;12.77;;;2.03;;
5391;SDS011;2719;53.624;9.786;2023-02-01T08:08:45;22.07;;;2.67;;
5391;SDS011;2719;53.624;9.786;2023-02-01T08:11:13;14.17;;;2.70;;
5391;SDS011;2719;53.624;9.786;2023-02-01T08:13:41;19.43;;;2.27;;
5391;SDS011;2719;53.624;9.786;2023-02-01T08:16:09;22.00;;;2.63;;
5391;SDS011;2719;53.624;9.786;2023-02-01T08:18:37;21.23;;;2.30;;
5391;SDS011;2719;53.624;9.786;2023-02-01T08:21:04;33.80;;;2.80;;
5391;SDS011;2719;53.624;9.786;2023-02-01T08:23:32;19.57;;;2.70;;
5391;SDS011;2719;53.624;9.786;2023-02-01T08:26:06;14.07;;;2.10;;
5391;SDS011;2719;53.624;9.786;2023-02-01T08:28:35;16.67;;;2.10;;
5391;SDS011;2719;53.624;9.786;2023-02-01T08:31:05;7.47;;;1.07;;
5391;SDS011;2719;53.624;9.786;2023-02-01T08:33:33;17.03;;;1.53;;
5391;SDS011;2719;53.624;9.786;2023-02-01T08:36:01;10.73;;;2.27;;
5391;SDS011;2719;53.624;9.786;2023-02-01T08:38:28;10.53;;;1.47;;
5391;SDS011;2719;53.624;9.786;2023-02-01T08:40:55;15.83;;;2.47;;
5391;SDS011;2719;53.624;9.786;2023-02-01T08:43:22;11.37;;;1.20;;
5391;SDS011;2719;53.624;9.786;2023-02-01T08:45:50;8.40;;;1.13;;
5391;SDS011;2719;53.624;9.786;2023-02-01T08:48:20;18.70;;;1.70;;
5391;SDS011;2719;53.624;9.786;2023-02-01T08:50:46;17.33;;;1.30;;
5391;SDS011;2719;53.624;9.786;2023-02-01T08:53:13;14.90;;;1.90;;
5391;SDS011;2719;53.624;9.786;2023-02-01T08:55:40;24.57;;;3.10;;
5391;SDS011;2719;53.624;9.786;2023-02-01T08:58:07;13.20;;;1.50;;
5391;SDS011;2719;53.624;9.786;2023-02-01T09:00:33;24.27;;;2.47;;
5391;SDS011;2719;53.624;9.786;2023-02-01T09:03:02;23.90;;;3.17;;
5391;SDS011;2719;53.624;9.786;2023-02-01T09:05:28;19.53;;;2.00;;
5391;SDS011;2719;53.624;9.786;2023-02-01T09:07:55;19.37;;;2.03;;
5391;SDS011;2719;53.624;9.786;2023-02-01T09:10:22;22.43;;;3.73;;
5391;SDS011;2719;53.624;9.786;2023-02-01T09:12:48;21.83;;;2.07;;
5391;SDS011;2719;53.624;9.786;2023-02-01T09:15:15;29.60;;;3.20;;
5391;SDS011;2719;53.624;9.786;2023-02-01T09:17:41;30.30;;;3.13;;
5391;SDS011;2719;53.624;9.786;2023-02-01T09:20:10;27.47;;;3.33;;
5391;SDS011;2719;53.624;9.786;2023-02-01T09:22:37;20.77;;;1.97;;
5391;SDS011;2719;53.624;9.786;2023-02-01T09:25:06;20.60;;;2.30;;
5391;SDS011;2719;53.624;9.786;2023-02-01T09:27:33;21.33;;;2.77;;
5391;SDS011;2719;53.624;9.786;2023-02-01T09:30:00;21.10;;;2.27;;
5391;SDS011;2719;53.624;9.786;2023-02-01T09:32:27;24.80;;;4.90;;
5391;SDS011;2719;53.624;9.786;2023-02-01T09:34:53;25.20;;;2.70;;
5391;SDS011;2719;53.624;9.786;2023-02-01T09:37:21;23.13;;;2.83;;
5391;SDS011;2719;53.624;9.786;2023-02-01T09:39:48;25.23;;;3.70;;
5391;SDS011;2719;53.624;9.786;2023-02-01T09:42:16;38.30;;;2.00;;
5391;SDS011;2719;53.624;9.786;2023-02-01T09:44:58;25.97;;;2.07;;
5391;SDS011;2719;53.624;9.786;2023-02-01T09:47:36;9.83;;;2.10;;
5391;SDS011;2719;53.624;9.786;2023-02-01T09:50:13;9.10;;;2.00;;
5391;SDS011;2719;53.624;9.786;2023-02-01T09:52:44;16.67;;;2.37;;
5391;SDS011;2719;53.624;9.786;2023-02-01T09:55:16;15.33;;;2.63;;
5391;SDS011;2719;53.624;9.786;2023-02-01T09:57:49;26.63;;;3.13;;
5391;SDS011;2719;53.624;9.786;2023-02-01T10:00:20;26.70;;;2.47;;
5391;SDS011;2719;53.624;9.786;2023-02-01T10:02:50;22.93;;;2.43;;
5391;SDS011;2719;53.624;9.786;2023-02-01T10:05:22;31.47;;;2.00;;
5391;SDS011;2719;53.624;9.786;2023-02-01T10:08:04;20.73;;;2.50;;
5391;SDS011;2719;53.624;9.786;2023-02-01T10:10:40;21.80;;;3.80;;
5391;SDS011;2719;53.624;9.786;2023-02-01T10:16:10;20.53;;;2.67;;
5391;SDS011;2719;53.624;9.786;2023-02-01T10:18:45;19.93;;;2.87;;
5391;SDS011;2719;53.624;9.786;2023-02-01T10:21:26;18.07;;;3.17;;
5391;SDS011;2719;53.624;9.786;2023-02-01T10:24:15;24.60;;;3.07;;
5391;SDS011;2719;53.624;9.786;2023-02-01T10:26:50;24.10;;;2.30;;
5391;SDS011;2719;53.624;9.786;2023-02-01T10:29:20;29.47;;;2.70;;
5391;SDS011;2719;53.624;9.786;2023-02-01T10:31:51;25.53;;;3.30;;
5391;SDS011;2719;53.624;9.786;2023-02-01T10:34:19;23.20;;;1.83;;
5391;SDS011;2719;53.624;9.786;2023-02-01T10:36:55;19.57;;;3.00;;
5391;SDS011;2719;53.624;9.786;2023-02-01T10:39:27;27.17;;;2.70;;
5391;SDS011;2719;53.624;9.786;2023-02-01T10:41:54;15.93;;;1.70;;
5391;SDS011;2719;53.624;9.786;2023-02-01T10:44:23;31.70;;;2.67;;
5391;SDS011;2719;53.624;9.786;2023-02-01T10:46:53;12.27;;;2.10;;
5391;SDS011;2719;53.624;9.786;2023-02-01T10:49:21;8.67;;;1.43;;
5391;SDS011;2719;53.624;9.786;2023-02-01T10:51:52;24.53;;;2.50;;
5391;SDS011;2719;53.624;9.786;2023-02-01T10:54:33;19.37;;;2.47;;
5391;SDS011;2719;53.624;9.786;2023-02-01T10:57:03;23.43;;;2.47;;
5391;SDS011;2719;53.624;9.786;2023-02-01T10:59:34;14.97;;;1.77;;
5391;SDS011;2719;53.624;9.786;2023-02-01T11:02:02;11.83;;;2.60;;
5391;SDS011;2719;53.624;9.786;2023-02-01T11:04:39;25.63;;;2.43;;
5391;SDS011;2719;53.624;9.786;2023-02-01T11:07:06;15.90;;;1.97;;
5391;SDS011;2719;53.624;9.786;2023-02-01T11:09:40;6.40;;;1.50;;
5391;SDS011;2719;53.624;9.786;2023-02-01T11:12:20;11.40;;;1.87;;
5391;SDS011;2719;53.624;9.786;2023-02-01T11:14:50;17.63;;;2.07;;
5391;SDS011;2719;53.624;9.786;2023-02-01T11:17:24;13.93;;;1.57;;
5391;SDS011;2719;53.624;9.786;2023-02-01T11:19:56;16.33;;;1.80;;
5391;SDS011;2719;53.624;9.786;2023-02-01T11:22:24;17.03;;;1.80;;
5391;SDS011;2719;53.624;9.786;2023-02-01T11:24:55;24.30;;;1.80;;
5391;SDS011;2719;53.624;9.786;2023-02-01T11:27:22;26.00;;;3.03;;
5391;SDS011;2719;53.624;9.786;2023-02-01T11:29:51;11.23;;;1.30;;
5391;SDS011;2719;53.624;9.786;2023-02-01T11:32:21;15.53;;;2.40;;
5391;SDS011;2719;53.624;9.786;2023-02-01T11:35:02;18.40;;;1.83;;
5391;SDS011;2719;53.624;9.786;2023-02-01T11:37:33;14.50;;;1.77;;
5391;SDS011;2719;53.624;9.786;2023-02-01T11:40:24;30.47;;;1.80;;
5391;SDS011;2719;53.624;9.786;2023-02-01T11:42:54;16.17;;;1.70;;
5391;SDS011;2719;53.624;9.786;2023-02-01T11:45:24;23.50;;;1.80;;
5391;SDS011;2719;53.624;9.786;2023-02-01T11:47:52;19.93;;;2.33;;
5391;SDS011;2719;53.624;9.786;2023-02-01T11:50:22;12.50;;;1.70;;
5391;SDS011;2719;53.624;9.786;2023-02-01T11:53:03;11.77;;;1.30;;
5391;SDS011;2719;53.624;9.786;2023-02-01T11:56:03;7.47;;;1.67;;
5391;SDS011;2719;53.624;9.786;2023-02-01T11:58:46;11.00;;;0.90;;
5391;SDS011;2719;53.624;9.786;2023-02-01T12:01:42;10.90;;;1.23;;
5391;SDS011;2719;53.624;9.786;2023-02-01T12:07:19;11.20;;;1.57;;
5391;SDS011;2719;53.624;9.786;2023-02-01T12:10:00;27.57;;;2.03;;
5391;SDS011;2719;53.624;9.786;2023-02-01T12:12:37;8.20;;;1.30;;
5391;SDS011;2719;53.624;9.786;2023-02-01T12:15:15;15.60;;;1.30;;
5391;SDS011;2719;53.624;9.786;2023-02-01T12:18:01;8.80;;;1.60;;
5391;SDS011;2719;53.624;9.786;2023-02-01T12:20:50;4.73;;;0.80;;
5391;SDS011;2719;53.624;9.786;2023-02-01T12:23:45;3.50;;;1.03;;
5391;SDS011;2719;53.624;9.786;2023-02-01T12:26:31;3.00;;;0.70;;
5391;SDS011;2719;53.624;9.786;2023-02-01T12:32:14;1.03;;;0.30;;
5391;SDS011;2719;53.624;9.786;2023-02-01T12:38:09;2.40;;;0.43;;
5391;SDS011;2719;53.624;9.786;2023-02-01T12:40:50;1.97;;;0.50;;
5391;SDS011;2719;53.624;9.786;2023-02-01T12:43:31;4.30;;;0.50;;
5391;SDS011;2719;53.624;9.786;2023-02-01T12:46:05;0.80;;;0.30;;
5391;SDS011;2719;53.624;9.786;2023-02-01T12:48:36;0.70;;;0.30;;
5391;SDS011;2719;53.624;9.786;2023-02-01T12:51:09;2.10;;;0.57;;
5391;SDS011;2719;53.624;9.786;2023-02-01T12:53:43;2.43;;;0.30;;
5391;SDS011;2719;53.624;9.786;2023-02-01T12:56:14;1.33;;;0.40;;
5391;SDS011;2719;53.624;9.786;2023-02-01T12:58:45;1.73;;;0.60;;
5391;SDS011;2719;53.624;9.786;2023-02-01T13:01:15;2.60;;;0.40;;
5391;SDS011;2719;53.624;9.786;2023-02-01T13:03:52;1.20;;;0.30;;
5391;SDS011;2719;53.624;9.786;2023-02-01T13:06:26;1.83;;;0.40;;
5391;SDS011;2719;53.624;9.786;2023-02-01T13:08:58;1.50;;;0.30;;
5391;SDS011;2719;53.624;9.786;2023-02-01T13:11:31;3.60;;;1.00;;
5391;SDS011;2719;53.624;9.786;2023-02-01T13:14:01;2.30;;;0.40;;
5391;SDS011;2719;53.624;9.786;2023-02-01T13:16:32;0.70;;;0.30;;
5391;SDS011;2719;53.624;9.786;2023-02-01T13:19:05;1.53;;;0.33;;
5391;SDS011;2719;53.624;9.786;2023-02-01T13:21:38;3.70;;;0.40;;
5391;SDS011;2719;53.624;9.786;2023-02-01T13:24:09;1.37;;;0.33;;
5391;SDS011;2719;53.624;9.786;2023-02-01T13:26:49;0.80;;;0.30;;
5391;SDS011;2719;53.624;9.786;2023-02-01T13:29:18;3.07;;;0.40;;
5391;SDS011;2719;53.624;9.786;2023-02-01T13:34:38;1.10;;;0.30;;
5391;SDS011;2719;53.624;9.786;2023-02-01T13:37:23;1.50;;;0.50;;
5391;SDS011;2719;53.624;9.786;2023-02-01T13:39:59;2.20;;;0.40;;
5391;SDS011;2719;53.624;9.786;2023-02-01T13:42:41;2.10;;;0.77;;
5391;SDS011;2719;53.624;9.786;2023-02-01T13:45:14;4.47;;;0.40;;
5391;SDS011;2719;53.624;9.786;2023-02-01T13:47:43;1.77;;;0.70;;
5391;SDS011;2719;53.624;9.786;2023-02-01T13:50:17;5.33;;;0.57;;
5391;SDS011;2719;53.624;9.786;2023-02-01T13:52:51;5.57;;;1.07;;
5391;SDS011;2719;53.624;9.786;2023-02-01T13:55:24;9.63;;;0.70;;
5391;SDS011;2719;53.624;9.786;2023-02-01T13:57:59;13.80;;;0.60;;
5391;SDS011;2719;53.624;9.786;2023-02-01T14:00:29;14.53;;;0.60;;
5391;SDS011;2719;53.624;9.786;2023-02-01T14:05:59;7.13;;;0.93;;
5391;SDS011;2719;53.624;9.786;2023-02-01T14:08:39;8.23;;;0.80;;
5391;SDS011;2719;53.624;9.786;2023-02-01T14:11:30;14.33;;;1.17;;
5391;SDS011;2719;53.624;9.786;2023-02-01T14:17:29;9.00;;;0.83;;
5391;SDS011;2719;53.624;9.786;2023-02-01T14:23:13;20.67;;;1.10;;
5391;SDS011;2719;53.624;9.786;2023-02-01T14:25:42;21.57;;;1.33;;
5391;SDS011;2719;53.624;9.786;2023-02-01T14:28:10;9.30;;;1.20;;
5391;SDS011;2719;53.624;9.786;2023-02-01T14:30:40;12.47;;;0.93;;
5391;SDS011;2719;53.624;9.786;2023-02-01T14:33:12;4.17;;;0.40;;
5391;SDS011;2719;53.624;9.786;2023-02-01T14:35:54;5.67;;;0.70;;
5391;SDS011;2719;53.624;9.786;2023-02-01T14:38:28;15.67;;;0.83;;
5391;SDS011;2719;53.624;9.786;2023-02-01T14:41:09;6.67;;;1.70;;
5391;SDS011;2719;53.624;9.786;2023-02-01T14:43:49;11.50;;;1.53;;
5391;SDS011;2719;53.624;9.786;2023-02-01T14:46:17;6.67;;;1.37;;
5391;SDS011;2719;53.624;9.786;2023-02-01T14:48:45;7.03;;;0.77;;
5391;SDS011;2719;53.624;9.786;2023-02-01T14:51:13;6.20;;;0.80;;
5391;SDS011;2719;53.624;9.786;2023-02-01T14:53:43;6.50;;;0.93;;
5391;SDS011;2719;53.624;9.786;2023-02-01T14:56:12;6.57;;;1.17;;
5391;SDS011;2719;53.624;9.786;2023-02-01T14:58:45;10.87;;;1.73;;
5391;SDS011;2719;53.624;9.786;2023-02-01T15:01:18;12.17;;;1.00;;
5391;SDS011;2719;53.624;9.786;2023-02-01T15:03:49;20.83;;;2.57;;
5391;SDS011;2719;53.624;9.786;2023-02-01T15:09:09;23.20;;;1.57;;
5391;SDS011;2719;53.624;9.786;2023-02-01T15:11:57;10.87;;;1.37;;
5391;SDS011;2719;53.624;9.786;2023-02-01T15:14:26;6.77;;;1.10;;
5391;SDS011;2719;53.624;9.786;2023-02-01T15:16:55;5.53;;;0.80;;
5391;SDS011;2719;53.624;9.786;2023-02-01T15:19:22;10.00;;;1.67;;
5391;SDS011;2719;53.624;9.786;2023-02-01T15:21:51;14.33;;;1.20;;
5391;SDS011;2719;53.624;9.786;2023-02-01T15:24:22;9.27;;;0.80;;
5391;SDS011;2719;53.624;9.786;2023-02-01T15:26:50;8.17;;;1.37;;
5391;SDS011;2719;53.624;9.786;2023-02-01T15:29:18;7.60;;;1.10;;
5391;SDS011;2719;53.624;9.786;2023-02-01T15:31:47;8.70;;;1.10;;
5391;SDS011;2719;53.624;9.786;2023-02-01T15:34:15;6.63;;;1.33;;
5391;SDS011;2719;53.624;9.786;2023-02-01T15:36:43;11.20;;;1.30;;
5391;SDS011;2719;53.624;9.786;2023-02-01T15:39:11;3.60;;;0.80;;
5391;SDS011;2719;53.624;9.786;2023-02-01T15:41:44;13.03;;;1.33;;
5391;SDS011;2719;53.624;9.786;2023-02-01T15:44:15;8.30;;;1.17;;
5391;SDS011;2719;53.624;9.786;2023-02-01T15:46:45;7.07;;;1.33;;
5391;SDS011;2719;53.624;9.786;2023-02-01T15:49:20;21.33;;;1.27;;
5391;SDS011;2719;53.624;9.786;2023-02-01T15:51:50;11.80;;;1.50;;
5391;SDS011;2719;53.624;9.786;2023-02-01T15:54:19;17.10;;;1.57;;
5391;SDS011;2719;53.624;9.786;2023-02-01T15:56:51;23.20;;;3.90;;
5391;SDS011;2719;53.624;9.786;2023-02-01T15:59:20;13.33;;;2.03;;
5391;SDS011;2719;53.624;9.786;2023-02-01T16:01:48;21.40;;;1.40;;